sensor_id;sensor_type;location;lat;lon;timestamp;pressure;altitude;pressure_sealevel;temperature;humidity
54512;BME280;40419;47.438;19.026;2023-02-14T00:01:07;101544.69;;;2.35;100.00
54512;BME280;40419;47.438;19.026;2023-02-14T00:03:35;101545.41;;;2.37;100.00
54512;BME280;40419;47.438;19.026;2023-02-14T00:06:12;101542.84;;;2.35;100.00
54512;BME280;40419;47.438;19.026;2023-02-14T00:08:41;101557.06;;;2.23;100.00
54512;BME280;40419;47.438;19.026;2023-02-14T00:11:10;101554.59;;;1.94;100.00
54512;BME280;40419;47.438;19.026;2023-02-14T00:13:36;101543.91;;;1.81;100.00
54512;BME280;40419;47.438;19.026;2023-02-14T00:16:01;101543.50;;;1.87;100.00
54512;BME280;40419;47.438;19.026;2023-02-14T00:18:27;101554.56;;;1.81;100.00
54512;BME280;40419;47.438;19.026;2023-02-14T00:21:13;101548.81;;;1.74;100.00
54512;BME280;40419;47.438;19.026;2023-02-14T00:23:39;101543.56;;;1.73;100.00
54512;BME280;40419;47.438;19.026;2023-02-14T00:26:14;101540.38;;;1.81;100.00
54512;BME280;40419;47.438;19.026;2023-02-14T00:28:50;101552.78;;;1.82;100.00
54512;BME280;40419;47.438;19.026;2023-02-14T00:31:16;101543.88;;;1.68;100.00
54512;BME280;40419;47.438;19.026;2023-02-14T00:33:46;101540.59;;;1.77;100.00
54512;BME280;40419;47.438;19.026;2023-02-14T00:36:11;101537.06;;;1.90;100.00
54512;BME280;40419;47.438;19.026;2023-02-14T00:38:39;101542.00;;;1.83;100.00
54512;BME280;40419;47.438;19.026;2023-02-14T00:41:07;101534.41;;;1.90;100.00
54512;BME280;40419;47.438;19.026;2023-02-14T00:43:35;101527.69;;;1.84;100.00
54512;BME280;40419;47.438;19.026;2023-02-14T00:46:05;101536.53;;;1.98;100.00
54512;BME280;40419;47.438;19.026;2023-02-14T00:48:33;101544.13;;;1.91;100.00
54512;BME280;40419;47.438;19.026;2023-02-14T00:51:01;101547.53;;;1.93;100.00
54512;BME280;40419;47.438;19.026;2023-02-14T00:53:26;101543.72;;;1.97;100.00
54512;BME280;40419;47.438;19.026;2023-02-14T00:55:59;101545.09;;;2.03;100.00
54512;BME280;40419;47.438;19.026;2023-02-14T00:58:24;101547.22;;;1.98;100.00
54512;BME280;40419;47.438;19.026;2023-02-14T01:00:52;101543.38;;;2.02;100.00
54512;BME280;40419;47.438;19.026;2023-02-14T01:03:21;101541.63;;;2.65;100.00
54512;BME280;40419;47.438;19.026;2023-02-14T01:05:48;101538.66;;;2.57;100.00
54512;BME280;40419;47.438;19.026;2023-02-14T01:08:19;101540.47;;;2.56;100.00
54512;BME280;40419;47.438;19.026;2023-02-14T01:10:45;101529.06;;;2.28;100.00
54512;BME280;40419;47.438;19.026;2023-02-14T01:13:12;101529.84;;;2.18;100.00
54512;BME280;40419;47.438;19.026;2023-02-14T01:15:43;101514.44;;;2.08;100.00
54512;BME280;40419;47.438;19.026;2023-02-14T01:18:12;101523.63;;;2.04;100.00
54512;BME280;40419;47.438;19.026;2023-02-14T01:20:40;101529.19;;;2.01;100.00
54512;BME280;40419;47.438;19.026;2023-02-14T01:23:06;101518.94;;;1.95;100.00
54512;BME280;40419;47.438;19.026;2023-02-14T01:25:32;101514.00;;;1.89;100.00
54512;BME280;40419;47.438;19.026;2023-02-14T01:27:58;101517.75;;;1.86;100.00
54512;BME280;40419;47.438;19.026;2023-02-14T01:30:26;101507.16;;;1.85;100.00
54512;BME280;40419;47.438;19.026;2023-02-14T01:32:51;101508.78;;;1.87;100.00
54512;BME280;40419;47.438;19.026;2023-02-14T01:35:17;101500.63;;;1.76;100.00
54512;BME280;40419;47.438;19.026;2023-02-14T01:37:47;101507.13;;;1.72;100.00
54512;BME280;40419;47.438;19.026;2023-02-14T01:40:14;101505.75;;;1.79;100.00
54512;BME280;40419;47.438;19.026;2023-02-14T01:42:44;101508.44;;;1.66;100.00
54512;BME280;40419;47.438;19.026;2023-02-14T01:45:18;101502.78;;;1.71;100.00
54512;BME280;40419;47.438;19.026;2023-02-14T01:47:48;101499.66;;;1.64;100.00
54512;BME280;40419;47.438;19.026;2023-02-14T01:50:40;101504.69;;;1.82;100.00
54512;BME280;40419;47.438;19.026;2023-02-14T01:53:12;101509.41;;;1.91;100.00
54512;BME280;40419;47.438;19.026;2023-02-14T01:55:45;101515.91;;;1.87;100.00
54512;BME280;40419;47.438;19.026;2023-02-14T01:58:15;101513.88;;;1.77;100.00
54512;BME280;40419;47.438;19.026;2023-02-14T02:00:44;101506.59;;;1.80;100.00
54512;BME280;40419;47.438;19.026;2023-02-14T02:03:50;101506.84;;;1.89;100.00
54512;BME280;40419;47.438;19.026;2023-02-14T02:06:25;101496.16;;;2.15;100.00
54512;BME280;40419;47.438;19.026;2023-02-14T02:10:06;101502.03;;;2.07;100.00
54512;BME280;40419;47.438;19.026;2023-02-14T02:12:03;101498.28;;;1.97;100.00
54512;BME280;40419;47.438;19.026;2023-02-14T02:14:29;101503.41;;;2.00;100.00
54512;BME280;40419;47.438;19.026;2023-02-14T02:23:09;101477.75;;;1.72;100.00
54512;BME280;40419;47.438;19.026;2023-02-14T02:37:19;101481.06;;;1.50;100.00
54512;BME280;40419;47.438;19.026;2023-02-14T02:40:05;101487.34;;;1.49;100.00
54512;BME280;40419;47.438;19.026;2023-02-14T02:42:40;101482.97;;;1.48;100.00
54512;BME280;40419;47.438;19.026;2023-02-14T02:50:28;101480.97;;;1.51;100.00
54512;BME280;40419;47.438;19.026;2023-02-14T02:53:35;101486.25;;;1.38;100.00
54512;BME280;40419;47.438;19.026;2023-02-14T02:56:17;101477.81;;;1.32;100.00
54512;BME280;40419;47.438;19.026;2023-02-14T02:59:09;101478.13;;;1.27;100.00
54512;BME280;40419;47.438;19.026;2023-02-14T03:01:48;101469.34;;;1.25;100.00
54512;BME280;40419;47.438;19.026;2023-02-14T03:04:15;101473.84;;;1.24;100.00
54512;BME280;40419;47.438;19.026;2023-02-14T03:07:01;101475.22;;;1.17;100.00
54512;BME280;40419;47.438;19.026;2023-02-14T03:22:42;101475.31;;;1.16;100.00
54512;BME280;40419;47.438;19.026;2023-02-14T03:28:11;101466.31;;;1.04;100.00
54512;BME280;40419;47.438;19.026;2023-02-14T03:30:59;101469.84;;;1.04;100.00
54512;BME280;40419;47.438;19.026;2023-02-14T03:33:49;101467.91;;;1.06;100.00
54512;BME280;40419;47.438;19.026;2023-02-14T03:36:26;101469.75;;;1.06;100.00
54512;BME280;40419;47.438;19.026;2023-02-14T03:39:02;101464.94;;;1.11;100.00
54512;BME280;40419;47.438;19.026;2023-02-14T03:41:37;101466.19;;;1.05;100.00
54512;BME280;40419;47.438;19.026;2023-02-14T03:44:07;101480.31;;;1.08;100.00
54512;BME280;40419;47.438;19.026;2023-02-14T03:46:56;101468.03;;;1.05;100.00
54512;BME280;40419;47.438;19.026;2023-02-14T03:49:30;101474.09;;;1.07;100.00
54512;BME280;40419;47.438;19.026;2023-02-14T03:51:58;101481.25;;;1.06;100.00
54512;BME280;40419;47.438;19.026;2023-02-14T03:54:30;101477.84;;;1.04;100.00
54512;BME280;40419;47.438;19.026;2023-02-14T03:59:30;101477.75;;;1.06;100.00
54512;BME280;40419;47.438;19.026;2023-02-14T04:02:03;101473.25;;;1.06;100.00
54512;BME280;40419;47.438;19.026;2023-02-14T04:04:36;101471.94;;;0.99;100.00
54512;BME280;40419;47.438;19.026;2023-02-14T04:07:10;101481.03;;;0.97;100.00
54512;BME280;40419;47.438;19.026;2023-02-14T04:09:36;101473.13;;;0.95;100.00
54512;BME280;40419;47.438;19.026;2023-02-14T04:12:01;101463.50;;;0.93;100.00
54512;BME280;40419;47.438;19.026;2023-02-14T04:14:29;101469.16;;;0.88;100.00
54512;BME280;40419;47.438;19.026;2023-02-14T04:16:56;101462.00;;;0.88;100.00
54512;BME280;40419;47.438;19.026;2023-02-14T04:19:43;101461.28;;;0.99;100.00
54512;BME280;40419;47.438;19.026;2023-02-14T04:22:09;101456.16;;;0.96;100.00
54512;BME280;40419;47.438;19.026;2023-02-14T04:24:34;101470.91;;;1.02;100.00
54512;BME280;40419;47.438;19.026;2023-02-14T04:27:00;101463.00;;;1.00;100.00
54512;BME280;40419;47.438;19.026;2023-02-14T04:32:06;101467.50;;;1.00;100.00
54512;BME280;40419;47.438;19.026;2023-02-14T04:34:34;101471.94;;;0.99;100.00
54512;BME280;40419;47.438;19.026;2023-02-14T04:37:06;101472.09;;;1.11;100.00
54512;BME280;40419;47.438;19.026;2023-02-14T04:39:32;101475.09;;;1.19;100.00
54512;BME280;40419;47.438;19.026;2023-02-14T04:42:00;101469.75;;;1.06;100.00
54512;BME280;40419;47.438;19.026;2023-02-14T04:44:28;101478.16;;;1.00;100.00
54512;BME280;40419;47.438;19.026;2023-02-14T04:47:02;101478.38;;;1.10;100.00
54512;BME280;40419;47.438;19.026;2023-02-14T04:49:28;101481.97;;;1.36;100.00
54512;BME280;40419;47.438;19.026;2023-02-14T04:51:54;101474.25;;;1.18;100.00
54512;BME280;40419;47.438;19.026;2023-02-14T04:54:19;101467.22;;;1.17;100.00
54512;BME280;40419;47.438;19.026;2023-02-14T04:56:47;101476.09;;;1.31;100.00
54512;BME280;40419;47.438;19.026;2023-02-14T04:59:15;101462.03;;;1.29;100.00
54512;BME280;40419;47.438;19.026;2023-02-14T05:01:43;101464.53;;;1.17;100.00
54512;BME280;40419;47.438;19.026;2023-02-14T05:04:11;101461.88;;;1.17;100.00
54512;BME280;40419;47.438;19.026;2023-02-14T05:06:36;101472.69;;;1.29;100.00
54512;BME280;40419;47.438;19.026;2023-02-14T05:09:02;101469.47;;;1.23;100.00
54512;BME280;40419;47.438;19.026;2023-02-14T05:11:28;101476.63;;;1.23;100.00
54512;BME280;40419;47.438;19.026;2023-02-14T05:13:56;101471.44;;;1.07;100.00
54512;BME280;40419;47.438;19.026;2023-02-14T05:16:22;101475.91;;;0.94;100.00
54512;BME280;40419;47.438;19.026;2023-02-14T05:18:50;101472.34;;;0.93;100.00
54512;BME280;40419;47.438;19.026;2023-02-14T05:21:18;101473.88;;;0.97;100.00
54512;BME280;40419;47.438;19.026;2023-02-14T05:23:44;101473.25;;;1.06;100.00
54512;BME280;40419;47.438;19.026;2023-02-14T05:26:12;101473.22;;;0.94;100.00
54512;BME280;40419;47.438;19.026;2023-02-14T05:28:42;101474.06;;;0.94;100.00
54512;BME280;40419;47.438;19.026;2023-02-14T05:31:10;101480.81;;;0.73;100.00
54512;BME280;40419;47.438;19.026;2023-02-14T05:33:36;101483.81;;;0.81;100.00
54512;BME280;40419;47.438;19.026;2023-02-14T05:36:03;101479.22;;;1.10;100.00
54512;BME280;40419;47.438;19.026;2023-02-14T05:38:30;101475.88;;;1.21;100.00
54512;BME280;40419;47.438;19.026;2023-02-14T05:40:59;101473.63;;;1.15;100.00
54512;BME280;40419;47.438;19.026;2023-02-14T05:43:26;101485.78;;;1.19;100.00
54512;BME280;40419;47.438;19.026;2023-02-14T05:45:53;101480.09;;;1.11;100.00
54512;BME280;40419;47.438;19.026;2023-02-14T05:48:21;101473.66;;;1.00;100.00
54512;BME280;40419;47.438;19.026;2023-02-14T05:50:49;101484.34;;;1.00;100.00
54512;BME280;40419;47.438;19.026;2023-02-14T05:53:19;101488.53;;;1.04;100.00
54512;BME280;40419;47.438;19.026;2023-02-14T05:55:45;101488.94;;;0.98;100.00
54512;BME280;40419;47.438;19.026;2023-02-14T05:58:13;101486.66;;;0.92;100.00
54512;BME280;40419;47.438;19.026;2023-02-14T06:00:43;101496.03;;;0.85;100.00
54512;BME280;40419;47.438;19.026;2023-02-14T06:03:11;101495.44;;;0.80;100.00
54512;BME280;40419;47.438;19.026;2023-02-14T06:05:39;101502.94;;;0.87;100.00
54512;BME280;40419;47.438;19.026;2023-02-14T06:08:04;101502.16;;;1.00;100.00
54512;BME280;40419;47.438;19.026;2023-02-14T06:10:30;101498.59;;;1.14;100.00
54512;BME280;40419;47.438;19.026;2023-02-14T06:12:55;101499.31;;;1.16;100.00
54512;BME280;40419;47.438;19.026;2023-02-14T06:15:26;101488.22;;;1.09;100.00
54512;BME280;40419;47.438;19.026;2023-02-14T06:17:56;101504.88;;;1.13;100.00
54512;BME280;40419;47.438;19.026;2023-02-14T06:20:24;101503.91;;;1.14;100.00
54512;BME280;40419;47.438;19.026;2023-02-14T06:22:55;101512.00;;;1.39;100.00
54512;BME280;40419;47.438;19.026;2023-02-14T06:25:22;101513.56;;;1.29;100.00
54512;BME280;40419;47.438;19.026;2023-02-14T06:27:47;101517.81;;;1.59;100.00
54512;BME280;40419;47.438;19.026;2023-02-14T06:30:13;101518.44;;;1.50;100.00
54512;BME280;40419;47.438;19.026;2023-02-14T06:32:39;101518.75;;;1.45;100.00
54512;BME280;40419;47.438;19.026;2023-02-14T06:35:05;101521.41;;;1.45;100.00
54512;BME280;40419;47.438;19.026;2023-02-14T06:37:34;101527.63;;;1.58;100.00
54512;BME280;40419;47.438;19.026;2023-02-14T06:40:03;101525.25;;;1.54;100.00
54512;BME280;40419;47.438;19.026;2023-02-14T06:42:32;101535.00;;;1.55;100.00
54512;BME280;40419;47.438;19.026;2023-02-14T06:45:00;101535.13;;;1.66;100.00
54512;BME280;40419;47.438;19.026;2023-02-14T06:47:30;101534.94;;;1.69;100.00
54512;BME280;40419;47.438;19.026;2023-02-14T06:49:58;101532.78;;;1.74;100.00
54512;BME280;40419;47.438;19.026;2023-02-14T06:52:24;101537.19;;;2.01;100.00
54512;BME280;40419;47.438;19.026;2023-02-14T06:54:50;101550.44;;;1.90;100.00
54512;BME280;40419;47.438;19.026;2023-02-14T06:57:16;101549.25;;;1.94;100.00
54512;BME280;40419;47.438;19.026;2023-02-14T06:59:43;101558.03;;;1.96;100.00
54512;BME280;40419;47.438;19.026;2023-02-14T07:02:10;101549.91;;;2.10;100.00
54512;BME280;40419;47.438;19.026;2023-02-14T07:04:38;101560.06;;;2.18;100.00
54512;BME280;40419;47.438;19.026;2023-02-14T07:07:08;101551.44;;;2.15;100.00
54512;BME280;40419;47.438;19.026;2023-02-14T07:09:36;101550.13;;;2.33;100.00
54512;BME280;40419;47.438;19.026;2023-02-14T07:12:06;101548.00;;;2.25;100.00
54512;BME280;40419;47.438;19.026;2023-02-14T07:14:37;101557.91;;;2.23;100.00
54512;BME280;40419;47.438;19.026;2023-02-14T07:17:02;101557.31;;;2.33;100.00
54512;BME280;40419;47.438;19.026;2023-02-14T07:19:30;101557.19;;;2.34;100.00
54512;BME280;40419;47.438;19.026;2023-02-14T07:21:55;101552.19;;;2.29;100.00
54512;BME280;40419;47.438;19.026;2023-02-14T07:24:23;101553.97;;;2.42;100.00
54512;BME280;40419;47.438;19.026;2023-02-14T07:26:51;101556.22;;;2.35;100.00
54512;BME280;40419;47.438;19.026;2023-02-14T07:29:19;101550.97;;;2.46;100.00
54512;BME280;40419;47.438;19.026;2023-02-14T07:31:47;101566.59;;;2.53;100.00
54512;BME280;40419;47.438;19.026;2023-02-14T07:34:15;101566.88;;;2.61;100.00
54512;BME280;40419;47.438;19.026;2023-02-14T07:36:42;101569.34;;;2.64;100.00
54512;BME280;40419;47.438;19.026;2023-02-14T07:39:08;101567.16;;;2.82;100.00
54512;BME280;40419;47.438;19.026;2023-02-14T07:41:33;101568.06;;;2.70;100.00
54512;BME280;40419;47.438;19.026;2023-02-14T07:43:59;101576.56;;;2.88;100.00
54512;BME280;40419;47.438;19.026;2023-02-14T07:46:27;101583.78;;;2.74;100.00
54512;BME280;40419;47.438;19.026;2023-02-14T07:48:53;101586.22;;;2.77;100.00
54512;BME280;40419;47.438;19.026;2023-02-14T07:51:20;101582.59;;;2.65;100.00
54512;BME280;40419;47.438;19.026;2023-02-14T07:53:46;101591.69;;;2.76;100.00
54512;BME280;40419;47.438;19.026;2023-02-14T07:56:13;101588.28;;;2.61;100.00
54512;BME280;40419;47.438;19.026;2023-02-14T07:58:39;101586.38;;;2.63;100.00
54512;BME280;40419;47.438;19.026;2023-02-14T08:01:07;101582.09;;;2.60;100.00
54512;BME280;40419;47.438;19.026;2023-02-14T08:03:33;101586.25;;;2.52;100.00
54512;BME280;40419;47.438;19.026;2023-02-14T08:06:00;101585.63;;;2.48;100.00
54512;BME280;40419;47.438;19.026;2023-02-14T08:08:30;101580.25;;;2.61;100.00
54512;BME280;40419;47.438;19.026;2023-02-14T08:10:59;101582.16;;;2.84;100.00
54512;BME280;40419;47.438;19.026;2023-02-14T08:13:24;101583.47;;;2.53;100.00
54512;BME280;40419;47.438;19.026;2023-02-14T08:15:50;101579.22;;;2.38;100.00
54512;BME280;40419;47.438;19.026;2023-02-14T08:18:37;101580.59;;;2.56;100.00
54512;BME280;40419;47.438;19.026;2023-02-14T08:21:09;101578.41;;;2.74;100.00
54512;BME280;40419;47.438;19.026;2023-02-14T08:23:36;101575.13;;;2.71;100.00
54512;BME280;40419;47.438;19.026;2023-02-14T08:26:04;101577.69;;;2.72;100.00
54512;BME280;40419;47.438;19.026;2023-02-14T08:28:32;101576.59;;;2.75;100.00
54512;BME280;40419;47.438;19.026;2023-02-14T08:30:59;101582.81;;;3.12;100.00
54512;BME280;40419;47.438;19.026;2023-02-14T08:33:27;101578.00;;;3.17;100.00
54512;BME280;40419;47.438;19.026;2023-02-14T08:35:53;101586.31;;;3.26;100.00
54512;BME280;40419;47.438;19.026;2023-02-14T08:38:18;101581.28;;;3.45;100.00
54512;BME280;40419;47.438;19.026;2023-02-14T08:40:46;101583.47;;;3.40;100.00
54512;BME280;40419;47.438;19.026;2023-02-14T08:43:14;101591.19;;;3.32;100.00
54512;BME280;40419;47.438;19.026;2023-02-14T08:45:42;101585.72;;;3.09;100.00
54512;BME280;40419;47.438;19.026;2023-02-14T08:48:11;101585.44;;;3.25;100.00
54512;BME280;40419;47.438;19.026;2023-02-14T08:50:40;101586.50;;;3.35;100.00
54512;BME280;40419;47.438;19.026;2023-02-14T08:53:09;101584.63;;;3.49;100.00
54512;BME280;40419;47.438;19.026;2023-02-14T08:55:38;101588.53;;;3.56;100.00
54512;BME280;40419;47.438;19.026;2023-02-14T08:58:05;101584.19;;;3.42;100.00
54512;BME280;40419;47.438;19.026;2023-02-14T09:00:36;101583.41;;;3.53;100.00
54512;BME280;40419;47.438;19.026;2023-02-14T09:03:04;101589.84;;;3.50;100.00
54512;BME280;40419;47.438;19.026;2023-02-14T09:05:32;101585.44;;;3.73;100.00
54512;BME280;40419;47.438;19.026;2023-02-14T09:08:01;101583.56;;;3.98;100.00
54512;BME280;40419;47.438;19.026;2023-02-14T09:10:32;101585.88;;;4.03;100.00
54512;BME280;40419;47.438;19.026;2023-02-14T09:12:57;101588.22;;;4.07;100.00
54512;BME280;40419;47.438;19.026;2023-02-14T09:15:23;101590.25;;;3.93;100.00
54512;BME280;40419;47.438;19.026;2023-02-14T09:17:50;101585.13;;;3.89;100.00
54512;BME280;40419;47.438;19.026;2023-02-14T09:20:16;101582.97;;;4.06;100.00
54512;BME280;40419;47.438;19.026;2023-02-14T09:22:44;101590.31;;;4.26;100.00
54512;BME280;40419;47.438;19.026;2023-02-14T09:25:12;101586.69;;;4.28;100.00
54512;BME280;40419;47.438;19.026;2023-02-14T09:27:42;101582.03;;;4.18;100.00
54512;BME280;40419;47.438;19.026;2023-02-14T09:30:09;101588.84;;;4.22;100.00
54512;BME280;40419;47.438;19.026;2023-02-14T09:32:37;101593.38;;;4.33;100.00
54512;BME280;40419;47.438;19.026;2023-02-14T09:35:07;101594.72;;;4.28;100.00
54512;BME280;40419;47.438;19.026;2023-02-14T09:37:36;101601.06;;;4.26;100.00
54512;BME280;40419;47.438;19.026;2023-02-14T09:40:10;101604.34;;;4.30;100.00
54512;BME280;40419;47.438;19.026;2023-02-14T09:45:07;101590.13;;;4.64;99.25
54512;BME280;40419;47.438;19.026;2023-02-14T09:52:44;101593.88;;;4.72;98.39
54512;BME280;40419;47.438;19.026;2023-02-14T09:55:17;101607.44;;;4.82;97.08
54512;BME280;40419;47.438;19.026;2023-02-14T10:00:47;101596.44;;;4.96;95.79
54512;BME280;40419;47.438;19.026;2023-02-14T10:06:14;101589.38;;;4.95;96.10
54512;BME280;40419;47.438;19.026;2023-02-14T10:11:49;101591.06;;;5.08;94.21
54512;BME280;40419;47.438;19.026;2023-02-14T10:14:22;101591.44;;;5.03;93.35
54512;BME280;40419;47.438;19.026;2023-02-14T10:19:30;101588.47;;;5.18;92.04
54512;BME280;40419;47.438;19.026;2023-02-14T10:21:58;101580.91;;;5.23;92.43
54512;BME280;40419;47.438;19.026;2023-02-14T10:24:36;101581.81;;;5.44;90.93
54512;BME280;40419;47.438;19.026;2023-02-14T10:29:40;101576.69;;;5.41;90.00
54512;BME280;40419;47.438;19.026;2023-02-14T10:32:14;101572.72;;;5.57;89.39
54512;BME280;40419;47.438;19.026;2023-02-14T10:34:49;101574.63;;;5.66;87.81
54512;BME280;40419;47.438;19.026;2023-02-14T10:58:48;101561.09;;;5.89;84.92
54512;BME280;40419;47.438;19.026;2023-02-14T11:01:16;101556.13;;;6.05;84.91
54512;BME280;40419;47.438;19.026;2023-02-14T11:03:57;101551.28;;;5.99;84.75
54512;BME280;40419;47.438;19.026;2023-02-14T11:06:30;101544.53;;;6.05;85.96
54512;BME280;40419;47.438;19.026;2023-02-14T11:08:58;101551.66;;;5.94;84.81
54512;BME280;40419;47.438;19.026;2023-02-14T11:11:25;101543.16;;;5.89;84.86
54512;BME280;40419;47.438;19.026;2023-02-14T11:13:55;101552.31;;;5.98;83.99
54512;BME280;40419;47.438;19.026;2023-02-14T11:21:47;101543.94;;;5.80;86.72
54512;BME280;40419;47.438;19.026;2023-02-14T11:26:49;101549.47;;;5.99;86.65
54512;BME280;40419;47.438;19.026;2023-02-14T11:29:48;101538.84;;;5.98;86.11
54512;BME280;40419;47.438;19.026;2023-02-14T11:37:26;101545.19;;;6.18;83.94
54512;BME280;40419;47.438;19.026;2023-02-14T11:39:57;101541.63;;;6.17;82.85
54512;BME280;40419;47.438;19.026;2023-02-14T11:45:01;101538.53;;;6.43;81.65
54512;BME280;40419;47.438;19.026;2023-02-14T11:47:34;101530.19;;;6.46;81.27
54512;BME280;40419;47.438;19.026;2023-02-14T11:50:27;101537.72;;;6.52;79.83
54512;BME280;40419;47.438;19.026;2023-02-14T11:52:56;101532.28;;;6.43;80.16
54512;BME280;40419;47.438;19.026;2023-02-14T11:55:31;101542.72;;;6.67;79.96
54512;BME280;40419;47.438;19.026;2023-02-14T11:58:02;101525.53;;;6.58;79.39
54512;BME280;40419;47.438;19.026;2023-02-14T12:00:34;101532.28;;;6.73;78.17
54512;BME280;40419;47.438;19.026;2023-02-14T12:03:04;101537.03;;;6.60;79.32
54512;BME280;40419;47.438;19.026;2023-02-14T12:05:47;101534.44;;;6.49;79.18
54512;BME280;40419;47.438;19.026;2023-02-14T12:08:25;101522.72;;;6.60;79.25
54512;BME280;40419;47.438;19.026;2023-02-14T12:11:05;101534.97;;;6.43;78.11
54512;BME280;40419;47.438;19.026;2023-02-14T12:13:54;101532.56;;;6.39;79.18
54512;BME280;40419;47.438;19.026;2023-02-14T12:18:57;101524.19;;;6.73;77.33
54512;BME280;40419;47.438;19.026;2023-02-14T12:21:43;101522.56;;;6.61;77.60
54512;BME280;40419;47.438;19.026;2023-02-14T12:24:22;101514.34;;;6.63;77.41
54512;BME280;40419;47.438;19.026;2023-02-14T12:29:38;101517.94;;;6.73;76.13
54512;BME280;40419;47.438;19.026;2023-02-14T12:32:21;101508.84;;;6.64;76.84
54512;BME280;40419;47.438;19.026;2023-02-14T12:34:48;101509.53;;;6.56;76.01
54512;BME280;40419;47.438;19.026;2023-02-14T12:51:25;101483.34;;;6.18;80.65
54512;BME280;40419;47.438;19.026;2023-02-14T13:01:58;101485.19;;;5.96;81.86
54512;BME280;40419;47.438;19.026;2023-02-14T13:05:02;101481.38;;;5.99;83.51
54512;BME280;40419;47.438;19.026;2023-02-14T13:07:58;101484.41;;;6.36;79.64
54512;BME280;40419;47.438;19.026;2023-02-14T13:13:27;101477.50;;;6.13;81.19
54512;BME280;40419;47.438;19.026;2023-02-14T13:18:55;101475.34;;;6.07;82.30
54512;BME280;40419;47.438;19.026;2023-02-14T13:21:30;101475.81;;;6.12;81.78
54512;BME280;40419;47.438;19.026;2023-02-14T13:24:24;101480.31;;;6.11;81.13
54512;BME280;40419;47.438;19.026;2023-02-14T13:26:55;101479.06;;;6.15;81.14
54512;BME280;40419;47.438;19.026;2023-02-14T13:29:31;101470.63;;;5.99;82.10
54512;BME280;40419;47.438;19.026;2023-02-14T13:32:02;101470.88;;;5.96;83.10
54512;BME280;40419;47.438;19.026;2023-02-14T13:34:34;101475.06;;;5.89;84.58
54512;BME280;40419;47.438;19.026;2023-02-14T13:37:02;101479.88;;;5.85;84.51
54512;BME280;40419;47.438;19.026;2023-02-14T13:39:40;101480.69;;;5.97;83.37
54512;BME280;40419;47.438;19.026;2023-02-14T13:42:09;101483.88;;;6.12;81.78
54512;BME280;40419;47.438;19.026;2023-02-14T13:47:19;101473.25;;;5.89;85.26
54512;BME280;40419;47.438;19.026;2023-02-14T13:49:53;101476.00;;;5.78;85.66
54512;BME280;40419;47.438;19.026;2023-02-14T13:55:07;101457.97;;;5.68;87.18
54512;BME280;40419;47.438;19.026;2023-02-14T13:57:34;101469.31;;;5.72;86.74
54512;BME280;40419;47.438;19.026;2023-02-14T14:02:46;101477.50;;;5.71;85.55
54512;BME280;40419;47.438;19.026;2023-02-14T14:22:07;101474.94;;;5.48;88.33
54512;BME280;40419;47.438;19.026;2023-02-14T14:27:20;101471.28;;;5.49;88.54
54512;BME280;40419;47.438;19.026;2023-02-14T14:29:51;101473.97;;;5.49;88.02
54512;BME280;40419;47.438;19.026;2023-02-14T14:32:31;101473.38;;;5.45;89.01
54512;BME280;40419;47.438;19.026;2023-02-14T14:40:35;101468.06;;;5.55;87.54
54512;BME280;40419;47.438;19.026;2023-02-14T14:43:25;101470.44;;;5.48;87.85
54512;BME280;40419;47.438;19.026;2023-02-14T14:45:56;101465.91;;;5.49;88.55
54512;BME280;40419;47.438;19.026;2023-02-14T14:51:00;101462.13;;;5.52;88.14
54512;BME280;40419;47.438;19.026;2023-02-14T14:56:21;101463.75;;;5.43;88.45
54512;BME280;40419;47.438;19.026;2023-02-14T14:58:50;101462.63;;;5.45;89.38
54512;BME280;40419;47.438;19.026;2023-02-14T15:01:31;101471.53;;;5.46;88.91
54512;BME280;40419;47.438;19.026;2023-02-14T15:04:13;101465.47;;;5.44;88.70
54512;BME280;40419;47.438;19.026;2023-02-14T15:06:43;101471.53;;;5.46;87.87
54512;BME280;40419;47.438;19.026;2023-02-14T15:09:23;101465.19;;;5.47;88.41
54512;BME280;40419;47.438;19.026;2023-02-14T15:11:54;101469.38;;;5.40;88.10
54512;BME280;40419;47.438;19.026;2023-02-14T15:14:40;101467.47;;;5.30;88.94
54512;BME280;40419;47.438;19.026;2023-02-14T15:17:17;101465.75;;;5.29;89.77
54512;BME280;40419;47.438;19.026;2023-02-14T15:19:46;101460.38;;;5.29;89.86
54512;BME280;40419;47.438;19.026;2023-02-14T15:22:30;101461.53;;;5.27;89.50
54512;BME280;40419;47.438;19.026;2023-02-14T15:25:12;101465.44;;;5.23;89.86
54512;BME280;40419;47.438;19.026;2023-02-14T15:27:41;101468.00;;;5.24;89.80
54512;BME280;40419;47.438;19.026;2023-02-14T15:32:46;101477.06;;;5.12;90.33
54512;BME280;40419;47.438;19.026;2023-02-14T15:35:16;101460.53;;;4.95;91.68
54512;BME280;40419;47.438;19.026;2023-02-14T15:37:44;101463.09;;;4.97;91.50
54512;BME280;40419;47.438;19.026;2023-02-14T15:40:17;101466.34;;;5.01;91.35
54512;BME280;40419;47.438;19.026;2023-02-14T15:42:44;101467.97;;;4.92;91.79
54512;BME280;40419;47.438;19.026;2023-02-14T15:47:51;101468.84;;;4.92;91.90
54512;BME280;40419;47.438;19.026;2023-02-14T15:50:20;101469.56;;;4.94;91.13
54512;BME280;40419;47.438;19.026;2023-02-14T15:52:56;101470.75;;;5.02;90.57
54512;BME280;40419;47.438;19.026;2023-02-14T15:55:25;101462.22;;;4.96;90.36
54512;BME280;40419;47.438;19.026;2023-02-14T15:58:05;101461.19;;;4.76;92.47
54512;BME280;40419;47.438;19.026;2023-02-14T16:00:36;101452.41;;;4.74;92.51
54512;BME280;40419;47.438;19.026;2023-02-14T16:03:06;101464.63;;;4.56;93.64